Time;durP1;ratioP1;P1;durP2;ratioP2;P2;SDS_P1;SDS_P2;PMS_P1;PMS_P2;Temp;Humidity;BMP_temperature;BMP_pressure;BME280_temperature;BME280_humidity;BME280_pressure;Samples;Min_cycle;Max_cycle;Signal;HPM_P1;HPM_P2
2022/03/04 00:01:23;;;;;;;15.63;13.13;;;5.90;46.30;;;-142.21;70.85;112049.66;5081798;28;20266;-80
2022/03/04 00:03:51;;;;;;;14.45;12.50;;;5.90;46.40;;;-142.21;69.58;112049.66;5085258;28;20217;-79
2022/03/04 00:06:18;;;;;;;15.00;11.95;;;5.80;46.00;;;-142.21;69.61;112049.66;5079019;28;21037;-80
2022/03/04 00:08:45;;;;;;;15.80;12.55;;;5.90;46.10;;;-142.21;68.73;112049.66;5074487;28;20625;-80
2022/03/04 00:11:14;;;;;;;14.98;12.18;;;5.90;46.10;;;-142.21;68.79;112049.66;5072180;28;20197;-79
2022/03/04 00:13:41;;;;;;;14.32;12.18;;;5.80;46.30;;;-142.21;69.19;112049.66;5073378;28;20193;-79
2022/03/04 00:16:09;;;;;;;18.05;13.68;;;5.70;46.90;;;-142.21;70.25;112049.66;5072576;28;20205;-79
2022/03/04 00:18:36;;;;;;;15.50;13.00;;;5.80;46.20;;;-142.21;70.10;112049.66;5072948;28;20200;-80
2022/03/04 00:21:03;;;;;;;15.40;12.85;;;5.80;47.00;;;-142.21;70.89;112049.66;5075155;28;20259;-80
2022/03/04 00:23:31;;;;;;;19.08;12.90;;;5.70;46.70;;;-142.21;70.93;112049.66;5072399;28;20219;-80
2022/03/04 00:25:58;;;;;;;16.52;12.63;;;5.70;46.80;;;-142.21;71.06;112049.66;5082959;28;20200;-79
2022/03/04 00:28:26;;;;;;;15.73;12.38;;;5.70;46.50;;;-142.21;71.45;112049.66;5072642;28;20197;-80
2022/03/04 00:30:54;;;;;;;13.88;11.80;;;5.60;47.00;;;-142.21;72.11;112049.66;5075583;28;20197;-80
2022/03/04 00:33:21;;;;;;;15.82;13.02;;;5.70;47.00;;;-142.21;72.00;112049.66;5078117;28;20232;-80
2022/03/04 00:35:48;;;;;;;15.20;12.88;;;5.70;46.90;;;-142.21;71.84;112049.66;5069570;28;20209;-80
2022/03/04 00:38:16;;;;;;;17.77;13.23;;;5.60;46.40;;;-142.21;71.85;112049.66;5070136;28;20209;-80
2022/03/04 00:40:43;;;;;;;14.82;13.02;;;5.60;47.00;;;-142.21;72.28;112049.66;5082758;28;20315;-79
2022/03/04 00:43:13;;;;;;;16.00;13.48;;;5.60;46.80;;;-142.21;71.24;112049.66;5080053;28;20343;-80
2022/03/04 00:45:41;;;;;;;14.90;13.25;;;5.60;46.60;;;-142.21;70.40;112049.66;5075262;28;20196;-80
2022/03/04 00:48:08;;;;;;;16.13;13.23;;;5.60;46.80;;;-142.21;71.55;112049.66;5072448;28;20205;-79
2022/03/04 00:50:35;;;;;;;17.52;13.18;;;5.50;47.00;;;-142.21;70.37;112049.66;5071985;28;20284;-79
2022/03/04 00:53:03;;;;;;;16.15;13.10;;;5.60;46.80;;;-142.21;69.46;112049.66;5071976;28;20256;-79
2022/03/04 00:55:30;;;;;;;17.10;13.15;;;5.60;46.60;;;-142.21;69.76;112049.66;5087242;28;20220;-80
2022/03/04 00:57:57;;;;;;;15.00;12.63;;;5.50;46.70;;;-142.21;68.95;112049.66;5086483;28;20269;-80
2022/03/04 01:00:25;;;;;;;16.17;13.30;;;5.60;46.60;;;-142.21;69.39;112049.66;5072328;28;20723;-79
2022/03/04 01:02:53;;;;;;;17.02;13.40;;;5.60;46.60;;;-142.21;70.58;112049.66;5074354;28;20247;-79
2022/03/04 01:05:21;;;;;;;16.65;12.63;;;5.60;46.80;;;-142.21;68.79;112049.66;5086179;28;20252;-80
2022/03/04 01:07:48;;;;;;;18.27;13.43;;;5.60;47.00;;;-142.21;68.58;112049.66;5072355;28;20194;-80
2022/03/04 01:10:16;;;;;;;18.30;13.55;;;5.60;46.60;;;-142.21;70.28;112049.66;5073389;28;20296;-80
2022/03/04 01:12:43;;;;;;;15.80;12.85;;;5.60;46.80;;;-142.21;69.20;112049.66;5076018;28;20208;-80
2022/03/04 01:15:11;;;;;;;17.60;12.48;;;5.50;46.90;;;-142.21;69.89;112049.66;5075923;28;20203;-79
2022/03/04 01:17:38;;;;;;;15.98;13.00;;;5.50;46.80;;;-142.21;69.54;112049.66;5064951;28;20233;-80
2022/03/04 01:20:09;;;;;;;15.52;12.32;;;5.50;47.00;;;-142.21;69.47;112049.66;5080194;28;20304;-80
2022/03/04 01:22:36;;;;;;;16.83;13.25;;;5.50;47.30;;;-142.21;70.04;112049.66;5082338;28;20251;-80
2022/03/04 01:25:05;;;;;;;16.63;12.73;;;5.50;47.00;;;-142.21;70.59;112049.66;5079122;28;20274;-79
2022/03/04 01:27:32;;;;;;;15.48;12.43;;;5.50;47.20;;;-142.21;71.57;112049.66;5082330;28;20711;-79
2022/03/04 01:30:04;;;;;;;16.85;12.82;;;5.50;47.80;;;-142.21;71.20;112049.66;5074910;28;20212;-79
2022/03/04 01:32:31;;;;;;;15.45;12.90;;;5.70;47.70;;;-142.21;71.31;112049.66;5070823;28;20509;-80
2022/03/04 01:34:58;;;;;;;16.45;12.82;;;5.50;47.10;;;-142.21;71.41;112049.66;5085183;28;20280;-80
2022/03/04 01:37:27;;;;;;;15.15;12.40;;;5.50;47.10;;;-142.21;70.09;112049.66;5071950;28;20205;-79
2022/03/04 01:39:54;;;;;;;15.73;12.68;;;5.40;47.20;;;-142.21;70.94;112049.66;5072110;28;20231;-78
2022/03/04 01:42:22;;;;;;;16.38;13.18;;;5.40;47.30;;;-142.21;71.02;112049.66;5081466;28;20214;-80
2022/03/04 01:44:49;;;;;;;17.98;12.95;;;5.30;47.10;;;-142.21;71.52;112049.66;5071307;28;20193;-80
2022/03/04 01:47:17;;;;;;;14.63;12.85;;;5.30;47.10;;;-142.21;70.56;112049.66;5072542;28;20196;-78
2022/03/04 01:49:44;;;;;;;16.27;13.00;;;5.40;47.30;;;-142.21;71.20;112049.66;5075838;28;20203;-78
2022/03/04 01:52:11;;;;;;;15.35;13.13;;;5.30;47.30;;;-142.21;71.15;112049.66;5058328;28;20205;-79
2022/03/04 01:54:40;;;;;;;16.65;12.70;;;5.30;47.70;;;-142.21;71.45;112049.66;5076663;28;20235;-79
2022/03/04 01:57:08;;;;;;;15.77;12.48;;;5.20;47.60;;;-142.21;71.49;112049.66;5075260;28;20235;-79
2022/03/04 01:59:35;;;;;;;16.23;13.38;;;5.30;47.60;;;-142.21;70.59;112049.66;5057771;28;20311;-79
2022/03/04 02:02:02;;;;;;;15.10;12.57;;;5.10;47.50;;;-142.21;71.90;112049.66;5059027;28;20204;-79
2022/03/04 02:04:29;;;;;;;15.77;12.05;;;5.20;47.40;;;-142.21;72.14;112049.66;5080911;28;20228;-80
2022/03/04 02:06:57;;;;;;;16.02;13.30;;;5.20;47.60;;;-142.21;70.70;112049.66;5081393;28;20248;-78
2022/03/04 02:09:24;;;;;;;15.57;12.88;;;5.20;47.80;;;-142.21;72.02;112049.66;5076645;28;20204;-80
2022/03/04 02:11:53;;;;;;;14.50;12.00;;;5.00;47.50;;;-142.21;73.58;112049.66;5080637;28;20733;-80
2022/03/04 02:14:23;;;;;;;14.77;13.02;;;5.10;48.20;;;-142.21;73.33;112049.66;5077979;28;20287;-80
2022/03/04 02:16:53;;;;;;;16.55;13.48;;;5.20;47.70;;;-142.21;73.28;112049.66;5082906;28;20232;-80
2022/03/04 02:19:23;;;;;;;16.48;12.80;;;5.10;47.80;;;-142.21;73.25;112049.66;5081860;28;20220;-80
2022/03/04 02:21:55;;;;;;;16.65;12.98;;;5.10;47.60;;;-142.21;73.84;112049.66;5085709;28;20322;-80
2022/03/04 02:24:25;;;;;;;18.27;13.45;;;5.10;47.70;;;-142.21;73.57;112049.66;5077539;28;20203;-79
2022/03/04 02:26:54;;;;;;;17.00;13.20;;;5.20;47.70;;;-142.21;72.98;112049.66;5084768;28;20266;-79
2022/03/04 02:29:23;;;;;;;15.82;12.60;;;5.20;47.60;;;-142.21;72.67;112049.66;5083510;28;20213;-78
2022/03/04 02:31:52;;;;;;;16.02;12.90;;;5.00;47.70;;;-142.21;71.47;112049.66;5083724;28;20201;-78
2022/03/04 02:34:20;;;;;;;17.48;13.20;;;5.10;47.70;;;-142.21;72.72;112049.66;5077499;28;20237;-79
2022/03/04 02:36:49;;;;;;;16.13;12.77;;;5.00;47.90;;;-142.21;74.12;112049.66;5080964;28;20293;-80
2022/03/04 02:39:18;;;;;;;17.52;13.65;;;5.10;48.20;;;-142.21;73.92;112049.66;5074774;28;20212;-80
2022/03/04 02:41:45;;;;;;;17.00;13.57;;;5.10;47.70;;;-142.21;74.70;112049.66;5075315;28;20227;-80
2022/03/04 02:44:15;;;;;;;18.63;13.75;;;5.10;47.80;;;-142.21;73.80;112049.66;5083993;28;20225;-78
2022/03/04 02:46:43;;;;;;;18.65;13.05;;;5.10;47.80;;;-142.21;73.00;112049.66;5089331;28;20205;-79
2022/03/04 02:49:15;;;;;;;17.40;13.43;;;5.10;47.80;;;-142.21;73.06;112049.66;5079897;28;20284;-80
2022/03/04 02:51:42;;;;;;;18.67;13.45;;;5.10;48.10;;;-142.21;73.63;112049.66;5070371;28;20489;-80
2022/03/04 02:54:09;;;;;;;18.15;13.32;;;5.10;47.70;;;-142.21;74.05;112049.66;5075305;28;20281;-78
2022/03/04 02:56:38;;;;;;;17.65;13.73;;;5.10;47.80;;;-142.21;74.80;112049.66;5056626;28;20244;-78
2022/03/04 02:59:05;;;;;;;17.48;14.10;;;5.10;48.20;;;-142.21;74.38;112049.66;5073301;28;20201;-80
2022/03/04 03:01:32;;;;;;;18.63;14.27;;;5.10;48.30;;;-142.21;74.80;112049.66;5079132;28;20235;-80
2022/03/04 03:03:59;;;;;;;20.38;14.68;;;5.10;48.00;;;-142.21;74.36;112049.66;5073642;28;20278;-80
2022/03/04 03:06:27;;;;;;;20.63;13.85;;;5.10;48.00;;;-142.21;73.01;112049.66;5072574;28;20677;-80
2022/03/04 03:08:54;;;;;;;15.98;12.88;;;5.10;47.90;;;-142.21;72.56;112049.66;5073040;28;20210;-79
2022/03/04 03:11:21;;;;;;;19.75;13.43;;;5.10;47.60;;;-142.21;74.30;112049.66;5081813;28;20284;-77
2022/03/04 03:13:49;;;;;;;16.83;12.52;;;5.00;48.00;;;-142.21;72.23;112049.66;5076107;28;20729;-79
2022/03/04 03:16:17;;;;;;;17.60;13.73;;;4.90;48.20;;;-142.21;74.63;112049.66;5073538;28;20284;-79
2022/03/04 03:18:44;;;;;;;17.25;14.05;;;5.10;48.10;;;-142.21;74.57;112049.66;5073326;28;20193;-79
2022/03/04 03:21:11;;;;;;;17.42;13.68;;;5.00;48.30;;;-142.21;75.24;112049.66;5072028;28;20227;-79
2022/03/04 03:23:39;;;;;;;19.40;13.65;;;5.00;48.50;;;-142.21;75.43;112049.66;5073770;28;20328;-79
2022/03/04 03:26:06;;;;;;;18.75;14.57;;;5.00;48.60;;;-142.21;74.17;112049.66;5073435;28;20233;-78
2022/03/04 03:28:33;;;;;;;18.08;14.60;;;5.00;48.50;;;-142.21;74.92;112049.66;5072750;28;20277;-80
2022/03/04 03:31:02;;;;;;;18.20;14.02;;;5.00;48.30;;;-142.21;74.40;112049.66;5073458;28;20633;-80
2022/03/04 03:33:29;;;;;;;17.35;14.73;;;5.00;48.50;;;-142.21;75.13;112049.66;5088428;28;20239;-80
2022/03/04 03:35:56;;;;;;;20.13;13.98;;;5.10;49.10;;;-142.21;74.55;112049.66;5080559;28;20216;-79
2022/03/04 03:38:24;;;;;;;18.23;13.40;;;5.00;48.60;;;-142.21;74.48;112049.66;5079851;28;20204;-81
2022/03/04 03:40:51;;;;;;;18.30;14.23;;;5.00;48.50;;;-142.21;76.29;112049.66;5074431;28;20243;-80
2022/03/04 03:43:18;;;;;;;19.23;14.38;;;4.90;48.80;;;-142.21;74.98;112049.66;5071717;28;20292;-78
2022/03/04 03:45:46;;;;;;;18.13;14.40;;;5.00;48.80;;;-142.21;76.55;112049.66;5080985;28;20200;-79
2022/03/04 03:48:15;;;;;;;17.13;13.93;;;4.90;48.40;;;-142.21;74.80;112049.66;5088807;28;20718;-80
2022/03/04 03:50:42;;;;;;;19.13;15.18;;;4.90;48.70;;;-142.21;76.24;112049.66;5082505;28;20204;-78
2022/03/04 03:53:09;;;;;;;16.83;13.33;;;4.90;48.80;;;-142.21;74.35;112049.66;5038256;28;1126123;-78
2022/03/04 03:55:36;;;;;;;19.48;13.88;;;5.00;48.90;;;-142.21;76.57;112049.66;5073400;28;20715;-80
2022/03/04 03:58:04;;;;;;;19.33;15.60;;;4.80;49.10;;;-142.21;75.86;112049.66;5073514;28;20203;-79
2022/03/04 04:00:33;;;;;;;19.10;14.00;;;4.80;49.00;;;-142.21;76.12;112049.66;5073328;28;20303;-77
2022/03/04 04:03:00;;;;;;;18.75;14.25;;;4.80;49.40;;;-142.21;76.65;112049.66;5073394;28;20285;-79
2022/03/04 04:05:28;;;;;;;20.13;14.25;;;4.80;49.40;;;-142.21;76.56;112049.66;5081911;28;20283;-80
2022/03/04 04:07:56;;;;;;;18.42;14.05;;;4.80;49.50;;;-142.21;75.63;112049.66;5073265;28;20241;-80
2022/03/04 04:10:23;;;;;;;18.75;14.35;;;4.80;49.50;;;-142.21;73.60;112049.66;5043271;28;20557;-79
2022/03/04 04:12:50;;;;;;;18.73;14.45;;;4.80;49.50;;;-142.21;73.31;112049.66;5074792;28;20197;-79
2022/03/04 04:15:18;;;;;;;20.55;15.98;;;4.70;49.70;;;-142.21;71.01;112049.66;5055560;28;20201;-79
2022/03/04 04:17:46;;;;;;;21.13;17.33;;;4.70;49.80;;;-142.21;69.54;112049.66;5072644;28;20205;-80
2022/03/04 04:20:13;;;;;;;19.45;15.77;;;4.70;49.80;;;-142.21;70.52;112049.66;5072969;28;20205;-79
2022/03/04 04:22:42;;;;;;;19.13;15.38;;;4.80;49.80;;;-142.21;68.97;112049.66;5072829;28;20209;-79
2022/03/04 04:25:09;;;;;;;18.38;14.43;;;4.80;49.80;;;-142.21;69.75;112049.66;5079171;28;20214;-79
2022/03/04 04:27:37;;;;;;;17.55;14.05;;;4.90;49.80;;;-142.21;71.08;112049.66;5082175;28;20193;-79
2022/03/04 04:30:06;;;;;;;17.25;13.82;;;5.00;49.20;;;-142.21;71.55;112049.66;5074129;28;20243;-79
2022/03/04 04:32:33;;;;;;;17.20;14.30;;;5.10;49.20;;;-142.21;71.58;112049.66;5083030;28;20219;-79
2022/03/04 04:35:00;;;;;;;16.73;13.45;;;5.10;48.80;;;-142.21;72.00;112049.66;5073024;28;20224;-80
2022/03/04 04:37:27;;;;;;;17.38;13.93;;;5.20;48.60;;;-142.21;72.01;112049.66;5074068;28;20231;-80
2022/03/04 04:39:56;;;;;;;17.17;13.77;;;5.10;48.80;;;-142.21;72.09;112049.66;5077340;28;20204;-78
2022/03/04 04:42:24;;;;;;;19.35;13.75;;;5.20;48.80;;;-142.21;72.70;112049.66;5073181;28;20311;-80
2022/03/04 04:44:52;;;;;;;15.93;13.18;;;5.20;48.70;;;-142.21;74.04;112049.66;5072406;28;20247;-80
2022/03/04 04:47:19;;;;;;;19.13;15.05;;;5.10;48.40;;;-142.21;74.21;112049.66;5072158;28;20898;-80
2022/03/04 04:49:46;;;;;;;17.60;13.98;;;5.20;48.50;;;-142.21;74.56;112049.66;5077249;28;20205;-80
2022/03/04 04:52:14;;;;;;;19.25;14.30;;;5.10;48.50;;;-142.21;74.68;112049.66;5071622;28;20342;-78
2022/03/04 04:54:42;;;;;;;18.35;13.95;;;5.10;48.40;;;-142.21;74.63;112049.66;5079234;28;20224;-78
2022/03/04 04:57:11;;;;;;;18.33;14.30;;;5.20;48.40;;;-142.21;75.11;112049.66;5071569;28;20240;-79
2022/03/04 04:59:38;;;;;;;17.85;13.43;;;5.10;48.60;;;-142.21;75.60;112049.66;5081107;28;20677;-80
2022/03/04 05:02:06;;;;;;;17.05;13.55;;;5.00;48.40;;;-142.21;74.73;112049.66;5080704;28;20259;-79
2022/03/04 05:04:33;;;;;;;16.95;13.73;;;5.00;48.50;;;-142.21;74.79;112049.66;5071850;28;20213;-80
2022/03/04 05:07:02;;;;;;;17.30;13.30;;;5.00;48.50;;;-142.21;75.62;112049.66;5072132;28;20714;-80
2022/03/04 05:09:29;;;;;;;18.67;14.57;;;4.90;48.50;;;-142.21;75.26;112049.66;5073037;28;20574;-79
2022/03/04 05:11:56;;;;;;;21.95;16.73;;;5.10;48.60;;;-142.21;74.77;112049.66;5073593;28;20200;-80
2022/03/04 05:14:26;;;;;;;18.52;14.95;;;4.90;48.80;;;-142.21;74.07;112049.66;5076305;28;20197;-79
2022/03/04 05:16:53;;;;;;;22.42;17.67;;;4.90;49.10;;;-142.21;72.68;112049.66;5072143;28;20288;-79
2022/03/04 05:19:20;;;;;;;27.42;22.60;;;4.80;49.20;;;-142.21;72.19;112049.66;5074038;28;20288;-79
2022/03/04 05:21:48;;;;;;;29.40;22.83;;;4.70;49.40;;;-142.21;71.44;112049.66;5087027;28;20298;-80
2022/03/04 05:24:15;;;;;;;28.25;23.85;;;4.70;49.30;;;-142.21;71.00;112049.66;5071720;28;20205;-79
2022/03/04 05:26:43;;;;;;;29.75;22.55;;;4.70;49.10;;;-142.21;70.78;112049.66;5069091;28;20726;-79
2022/03/04 05:29:13;;;;;;;29.85;24.90;;;4.80;49.20;;;-142.21;71.71;112049.66;5072454;28;20225;-78
2022/03/04 05:31:45;;;;;;;30.25;23.38;;;4.80;49.30;;;-142.21;72.46;112049.66;5071743;28;20330;-80
2022/03/04 05:34:12;;;;;;;22.83;18.98;;;4.90;49.50;;;-142.21;73.45;112049.66;5076178;28;20280;-79
2022/03/04 05:36:40;;;;;;;22.48;16.88;;;4.90;49.10;;;-142.21;73.63;112049.66;5082142;28;20642;-80
2022/03/04 05:39:08;;;;;;;20.27;15.85;;;4.90;48.90;;;-142.21;73.91;112049.66;5071473;28;20283;-80
2022/03/04 05:41:36;;;;;;;20.88;15.45;;;4.90;49.00;;;-142.21;72.69;112049.66;5062530;28;20217;-80
2022/03/04 05:44:04;;;;;;;18.48;15.90;;;4.90;48.80;;;-142.21;73.98;112049.66;5072245;28;20320;-79
2022/03/04 05:46:32;;;;;;;19.05;14.45;;;4.90;49.00;;;-142.21;73.39;112049.66;5075395;28;20280;-80
2022/03/04 05:49:02;;;;;;;19.75;14.82;;;5.00;49.00;;;-142.21;73.90;112049.66;5074451;28;20198;-80
2022/03/04 05:51:31;;;;;;;21.20;15.18;;;4.90;48.90;;;-142.21;74.07;112049.66;5082447;28;20276;-80
2022/03/04 05:53:58;;;;;;;18.90;14.70;;;4.90;48.90;;;-142.21;73.45;112049.66;5070544;28;20286;-81
2022/03/04 05:56:26;;;;;;;24.52;19.30;;;4.90;48.90;;;-142.21;72.75;112049.66;5079577;28;20649;-80
2022/03/04 05:58:53;;;;;;;31.70;25.25;;;4.80;49.30;;;-142.21;72.50;112049.66;5075074;28;20197;-80
2022/03/04 06:01:21;;;;;;;23.30;17.63;;;4.70;49.50;;;-142.21;72.89;112049.66;5072198;28;20225;-80
2022/03/04 06:03:48;;;;;;;22.13;16.55;;;4.60;49.70;;;-142.21;72.05;112049.66;5076842;28;20220;-80
2022/03/04 06:06:17;;;;;;;22.40;16.05;;;4.50;50.10;;;-142.21;71.66;112049.66;5080114;28;20228;-80
2022/03/04 06:08:44;;;;;;;21.58;16.65;;;4.50;50.10;;;-142.21;71.91;112049.66;5076594;28;20198;-78
2022/03/04 06:11:12;;;;;;;21.05;16.35;;;4.50;50.40;;;-142.21;70.73;112049.66;5072824;28;20592;-80
2022/03/04 06:13:40;;;;;;;21.52;16.40;;;4.60;50.00;;;-142.21;72.68;112049.66;5072761;28;20229;-80
2022/03/04 06:16:08;;;;;;;22.73;16.13;;;4.60;49.70;;;-142.21;73.08;112049.66;5070106;28;20204;-80
2022/03/04 06:18:35;;;;;;;18.88;15.00;;;4.80;49.60;;;-142.21;72.14;112049.66;5079203;28;20534;-80
2022/03/04 06:21:03;;;;;;;20.17;15.65;;;4.80;49.40;;;-142.21;73.33;112049.66;5086592;28;20319;-81
2022/03/04 06:23:31;;;;;;;20.92;16.40;;;4.80;49.30;;;-142.21;73.55;112049.66;5071446;28;20653;-79
2022/03/04 06:25:59;;;;;;;19.77;15.40;;;4.80;49.00;;;-142.21;73.42;112049.66;5079963;28;20275;-81
2022/03/04 06:28:27;;;;;;;19.98;15.55;;;4.90;49.20;;;-142.21;75.54;112049.66;5084943;28;20204;-80
2022/03/04 06:30:55;;;;;;;20.60;16.17;;;4.90;49.30;;;-142.21;75.59;112049.66;5082751;28;20588;-80
2022/03/04 06:33:32;;;;;;;21.15;14.77;;;4.90;49.40;;;-142.21;75.54;112049.66;5089813;28;20204;-79
2022/03/04 06:36:03;;;;;;;21.40;15.50;;;4.90;49.20;;;-142.21;75.06;112049.66;5083567;28;20192;-79
2022/03/04 06:38:34;;;;;;;20.85;16.00;;;5.00;49.40;;;-142.21;76.42;112049.66;5063683;28;20200;-80
2022/03/04 06:41:01;;;;;;;21.50;16.00;;;5.10;49.50;;;-142.21;78.38;112049.66;5082927;28;20559;-80
2022/03/04 06:43:29;;;;;;;21.02;16.38;;;5.10;49.50;;;-142.21;78.45;112049.66;5086496;28;20201;-78
2022/03/04 06:45:56;;;;;;;20.65;15.35;;;5.40;49.60;;;-142.21;77.34;112049.66;5084580;28;20192;-76
2022/03/04 06:48:23;;;;;;;20.80;15.27;;;5.30;49.50;;;-142.21;77.63;112049.66;5080500;28;20233;-76
2022/03/04 06:50:52;;;;;;;20.95;16.02;;;5.30;49.30;;;-142.21;77.90;112049.66;5068766;28;20232;-78
2022/03/04 06:53:20;;;;;;;18.27;15.23;;;5.50;49.40;;;-142.21;77.25;112049.66;5094684;28;20233;-78
2022/03/04 06:55:49;;;;;;;18.80;15.50;;;5.60;49.30;;;-142.21;77.27;112049.66;5080082;28;20201;-78
2022/03/04 06:58:17;;;;;;;20.38;15.05;;;5.80;49.30;;;-142.21;76.24;112049.66;5074476;28;20259;-77
2022/03/04 07:00:45;;;;;;;23.52;16.83;;;6.00;49.00;;;-142.21;74.86;112049.66;5073995;28;20197;-80
2022/03/04 07:03:12;;;;;;;17.88;14.82;;;6.20;48.80;;;-142.21;74.63;112049.66;5085514;28;20225;-79
2022/03/04 07:05:43;;;;;;;19.70;15.87;;;6.40;48.30;;;-142.21;71.72;112049.66;5073479;28;20294;-78
2022/03/04 07:08:11;;;;;;;22.40;16.55;;;6.50;48.00;;;-142.21;71.74;112049.66;5074035;28;20444;-78
2022/03/04 07:10:39;;;;;;;23.48;17.55;;;6.40;47.70;;;-142.21;71.61;112049.66;5082845;28;20553;-80
2022/03/04 07:13:08;;;;;;;19.27;15.02;;;6.40;48.00;;;-142.21;71.98;112049.66;5086820;28;20201;-80
2022/03/04 07:15:35;;;;;;;22.25;16.13;;;6.50;48.10;;;-142.21;70.91;112049.66;5080092;28;20205;-77
2022/03/04 07:18:03;;;;;;;19.93;15.70;;;6.70;47.80;;;-142.21;71.51;112049.66;5074044;28;20236;-77
2022/03/04 07:20:30;;;;;;;22.38;17.98;;;7.00;47.40;;;-142.21;71.48;112049.66;5087003;28;20538;-77
2022/03/04 07:22:58;;;;;;;20.73;17.30;;;7.00;47.30;;;-142.21;71.77;112049.66;5081562;28;20307;-78
2022/03/04 07:25:25;;;;;;;21.80;17.87;;;7.00;47.30;;;-142.21;74.22;112049.66;5081109;28;20212;-79
2022/03/04 07:27:53;;;;;;;23.48;17.27;;;7.00;47.40;;;-142.21;73.08;112049.66;5073542;28;20447;-80
2022/03/04 07:30:24;;;;;;;22.37;18.30;;;7.10;47.30;;;-142.21;73.04;112049.66;5083011;28;20546;-80
2022/03/04 07:32:51;;;;;;;21.77;17.73;;;7.20;47.40;;;-142.21;71.60;112049.66;5074384;28;20432;-81
2022/03/04 07:35:18;;;;;;;20.52;16.90;;;7.30;47.10;;;-142.21;69.44;112049.66;5074596;28;20295;-80
2022/03/04 07:37:46;;;;;;;21.10;16.83;;;8.50;46.60;;;-142.21;68.06;112049.66;5084815;28;20207;-80
2022/03/04 07:40:15;;;;;;;21.60;17.20;;;9.30;44.80;;;-142.21;69.35;112049.66;5075601;28;20452;-78
2022/03/04 07:42:43;;;;;;;23.50;17.80;;;9.30;44.10;;;-142.21;66.65;112049.66;5087853;28;20518;-80
2022/03/04 07:45:12;;;;;;;21.53;17.77;;;8.70;43.90;;;-142.21;67.28;112049.66;5075211;28;20448;-80
2022/03/04 07:47:43;;;;;;;20.27;17.03;;;8.30;44.70;;;-142.21;68.19;112049.66;5091242;28;20434;-79
2022/03/04 07:50:13;;;;;;;22.70;18.83;;;8.10;45.50;;;-142.21;69.17;112049.66;5073055;28;20530;-81
2022/03/04 07:52:41;;;;;;;21.63;18.10;;;8.10;46.00;;;-142.21;67.60;112049.66;5073521;28;20463;-80
2022/03/04 07:55:12;;;;;;;20.07;17.20;;;8.00;45.90;;;-142.21;66.66;112049.66;5081049;28;20514;-78
2022/03/04 07:57:40;;;;;;;22.40;18.33;;;8.10;46.50;;;-142.21;67.92;112049.66;5067763;28;20434;-81
2022/03/04 08:00:10;;;;;;;20.07;17.10;;;8.20;46.60;;;-142.21;66.68;112049.66;5091504;28;20503;-81
2022/03/04 08:02:37;;;;;;;20.67;16.97;;;8.60;45.80;;;-142.21;67.10;112049.66;5083224;28;20537;-80
2022/03/04 08:05:08;;;;;;;20.70;17.27;;;8.70;45.50;;;-142.21;67.02;112049.66;5085618;28;21047;-79
2022/03/04 08:07:36;;;;;;;21.07;17.70;;;8.80;45.60;;;-142.21;67.63;112049.66;5082954;28;20439;-81
2022/03/04 08:10:05;;;;;;;21.80;17.63;;;8.70;45.60;;;-142.21;66.67;112049.66;5076255;28;20902;-80
2022/03/04 08:12:40;;;;;;;21.67;17.10;;;9.00;45.60;;;-142.21;63.85;112049.66;5081357;28;20444;-81
2022/03/04 08:15:11;;;;;;;19.93;16.60;;;8.90;45.00;;;-142.21;62.24;112049.66;5083442;28;20503;-78
2022/03/04 08:17:45;;;;;;;20.17;17.37;;;8.90;45.10;;;-142.21;59.78;112049.66;5074364;28;20452;-77
2022/03/04 08:20:14;;;;;;;21.37;17.37;;;8.80;44.20;;;-142.21;59.83;112049.66;5086571;28;20511;-78
2022/03/04 08:22:41;;;;;;;24.73;19.17;;;8.90;44.50;;;-142.21;57.77;112049.66;5091667;28;20509;-79
2022/03/04 08:25:09;;;;;;;22.10;17.40;;;8.90;44.00;;;-142.21;56.82;112049.66;5085704;28;20496;-78
2022/03/04 08:27:42;;;;;;;23.67;18.17;;;8.90;43.80;;;-142.21;56.04;112049.66;5085707;28;20474;-78
2022/03/04 08:30:12;;;;;;;25.00;20.17;;;9.20;43.90;;;-142.21;58.02;112049.66;5081148;28;20442;-78
2022/03/04 08:32:45;;;;;;;27.77;20.23;;;9.40;43.80;;;-142.21;56.06;112049.66;5088363;28;20446;-79
2022/03/04 08:35:14;;;;;;;23.27;19.57;;;9.30;43.40;;;-142.21;56.41;112049.66;5080286;28;20452;-80
2022/03/04 08:37:44;;;;;;;21.27;18.90;;;9.20;43.90;;;-142.21;54.68;112049.66;5091397;28;20496;-79
2022/03/04 08:40:12;;;;;;;21.87;17.47;;;9.30;43.30;;;-142.21;54.08;112049.66;5092400;28;20458;-79
2022/03/04 08:42:43;;;;;;;22.53;18.20;;;9.20;42.70;;;-142.21;52.85;112049.66;5072388;28;20570;-81
2022/03/04 08:45:13;;;;;;;23.13;18.40;;;9.10;42.60;;;-142.21;53.25;112049.66;5073669;28;20447;-78
2022/03/04 08:47:43;;;;;;;22.97;17.73;;;9.00;43.20;;;-142.21;53.30;112049.66;5092912;28;20450;-78
2022/03/04 08:50:14;;;;;;;20.37;17.97;;;9.00;43.20;;;-142.21;51.56;112049.66;5093768;28;20443;-80
2022/03/04 08:52:41;;;;;;;23.03;18.80;;;8.90;42.80;;;-142.21;51.04;112049.66;5093011;28;20442;-80
2022/03/04 08:55:14;;;;;;;23.03;17.77;;;8.90;42.60;;;-142.21;54.23;112049.66;5093167;28;20519;-77
2022/03/04 08:57:42;;;;;;;24.03;17.93;;;9.20;43.30;;;-142.21;52.97;112049.66;5056728;28;20431;-80
2022/03/04 09:00:11;;;;;;;20.93;18.07;;;9.50;43.40;;;-142.21;52.17;112049.66;5084127;28;20451;-79
2022/03/04 09:02:38;;;;;;;21.87;17.50;;;9.70;42.60;;;-142.21;50.95;112049.66;5072919;28;20566;-79
2022/03/04 09:05:07;;;;;;;22.83;18.30;;;10.00;41.20;;;-142.21;49.50;112049.66;5080425;28;20856;-79
2022/03/04 09:07:36;;;;;;;25.23;19.37;;;10.10;40.40;;;-142.21;48.89;112049.66;5072911;28;20498;-79
2022/03/04 09:10:04;;;;;;;21.13;18.67;;;10.30;40.00;;;-142.21;48.37;112049.66;5073170;28;20541;-79
2022/03/04 09:12:32;;;;;;;22.07;19.07;;;10.60;40.40;;;-142.21;48.40;112049.66;5080502;28;20848;-80
2022/03/04 09:15:07;;;;;;;21.67;18.63;;;11.00;39.70;;;-142.21;48.52;112049.66;5080760;28;20516;-80
2022/03/04 09:17:34;;;;;;;23.47;19.77;;;11.30;39.10;;;-142.21;46.78;112049.66;5022259;28;20447;-80
2022/03/04 09:20:03;;;;;;;20.73;18.50;;;11.60;38.40;;;-142.21;46.07;112049.66;5083660;28;20482;-79
2022/03/04 09:22:30;;;;;;;21.93;19.30;;;12.10;37.50;;;-142.21;46.11;112049.66;5090197;28;20532;-78
2022/03/04 09:24:59;;;;;;;21.13;18.63;;;12.50;38.00;;;-142.21;47.17;112049.66;5088877;28;20451;-79
2022/03/04 09:27:26;;;;;;;22.83;19.97;;;13.90;38.70;;;-142.21;44.55;112049.66;5080167;28;20524;-80
2022/03/04 09:29:53;;;;;;;21.53;19.37;;;15.30;36.30;;;-142.21;44.66;112049.66;5070959;28;20444;-80
2022/03/04 09:32:21;;;;;;;23.80;20.37;;;17.00;35.60;;;-142.21;43.07;112049.66;5089824;28;20232;-79
2022/03/04 09:34:48;;;;;;;23.67;21.37;;;18.20;32.30;;;-142.21;43.37;112049.66;5091613;28;20261;-77
2022/03/04 09:37:16;;;;;;;22.23;20.13;;;19.40;31.00;;;-142.21;41.44;112049.66;5078298;28;20208;-79
2022/03/04 09:39:50;;;;;;;21.47;19.37;;;19.80;28.20;;;-142.21;42.16;112049.66;5079870;28;20632;-78
2022/03/04 09:42:22;;;;;;;23.23;21.03;;;20.50;28.80;;;-142.21;42.01;112049.66;5072265;28;20208;-78
2022/03/04 09:44:50;;;;;;;24.00;21.70;;;21.40;28.30;;;-142.21;40.85;112049.66;5071705;28;20284;-77
2022/03/04 09:47:24;;;;;;;22.60;20.50;;;22.10;27.20;;;-142.21;41.24;112049.66;5071277;28;20245;-78
2022/03/04 09:49:54;;;;;;;22.80;20.70;;;22.80;27.70;;;-142.21;40.10;112049.66;5071848;28;20231;-78
2022/03/04 09:52:22;;;;;;;22.07;20.07;;;23.60;27.30;;;-142.21;40.69;112049.66;5071282;28;20202;-78
2022/03/04 09:54:50;;;;;;;23.50;21.30;;;24.20;26.80;;;-142.21;39.42;112049.66;5071617;28;20240;-76
2022/03/04 09:57:21;;;;;;;23.47;21.23;;;24.50;25.80;;;-142.21;39.41;112049.66;5071812;28;20212;-76